createdAt,value
2023-05-21T00:00:56.455Z,84.41
2023-05-21T00:01:56.474Z,84.41
2023-05-21T00:02:56.601Z,84.41
2023-05-21T00:03:56.574Z,84.50
2023-05-21T00:04:56.448Z,84.41
2023-05-21T00:05:56.418Z,84.30
2023-05-21T00:06:56.441Z,84.30
2023-05-21T00:07:56.416Z,84.30
2023-05-21T00:08:57.022Z,84.41
2023-05-21T00:09:56.502Z,84.50
2023-05-21T00:10:56.379Z,84.61
2023-05-21T00:11:56.365Z,84.70
2023-05-21T00:12:56.335Z,84.70
2023-05-21T00:13:56.332Z,84.70
2023-05-21T00:14:56.323Z,84.70
2023-05-21T00:15:56.347Z,84.70
2023-05-21T00:16:56.300Z,84.70
2023-05-21T00:17:56.376Z,84.81
2023-05-21T00:18:56.327Z,84.91
2023-05-21T00:19:56.277Z,84.81
2023-05-21T00:20:56.275Z,84.81
2023-05-21T00:21:56.260Z,84.81
2023-05-21T00:22:56.250Z,84.81
2023-05-21T00:23:56.204Z,84.81
2023-05-21T00:24:56.199Z,84.91
2023-05-21T00:25:56.211Z,84.85
2023-05-21T00:26:56.425Z,84.81
2023-05-21T00:27:56.173Z,84.81
2023-05-21T00:28:56.175Z,84.91
2023-05-21T00:29:56.143Z,84.91
2023-05-21T00:30:56.181Z,84.91
2023-05-21T00:31:56.221Z,85.05
2023-05-21T00:32:56.148Z,85.11
2023-05-21T00:33:56.121Z,85.05
2023-05-21T00:34:56.130Z,85.11
2023-05-21T00:35:56.130Z,85.05
2023-05-21T00:36:56.135Z,85.11
2023-05-21T00:37:56.080Z,85.05
2023-05-21T00:38:56.067Z,85.01
2023-05-21T00:39:57.558Z,85.11
2023-05-21T00:40:56.053Z,85.21
2023-05-21T00:41:56.007Z,85.15
2023-05-21T00:42:56.019Z,85.25
2023-05-21T00:43:56.032Z,85.25
2023-05-21T00:44:56.009Z,85.36
2023-05-21T00:45:55.995Z,85.46
2023-05-21T00:46:55.964Z,85.56
2023-05-21T00:47:56.078Z,85.56
2023-05-21T00:48:55.979Z,85.56
2023-05-21T00:49:55.963Z,85.56
2023-05-21T00:50:55.918Z,85.56
2023-05-21T00:51:55.971Z,85.66
2023-05-21T00:52:55.928Z,85.56
2023-05-21T00:53:56.070Z,85.56
2023-05-21T00:54:55.912Z,85.56
2023-05-21T00:55:55.904Z,85.56
2023-05-21T00:56:55.860Z,85.66
2023-05-21T00:57:55.844Z,85.66
2023-05-21T00:58:55.849Z,85.66
2023-05-21T00:59:55.836Z,85.56
2023-05-21T01:00:55.947Z,85.66
2023-05-21T01:01:56.256Z,85.66
2023-05-21T01:02:55.950Z,85.66
2023-05-21T01:03:57.520Z,85.66
2023-05-21T01:04:55.788Z,85.76
2023-05-21T01:05:55.757Z,85.76
2023-05-21T01:06:55.807Z,85.76
2023-05-21T01:07:55.785Z,85.76
2023-05-21T01:08:55.728Z,85.76
2023-05-21T01:09:55.763Z,85.66
2023-05-21T01:10:55.744Z,85.66
2023-05-21T01:11:55.705Z,85.66
2023-05-21T01:12:55.701Z,85.56
2023-05-21T01:13:55.717Z,85.56
2023-05-21T01:14:55.668Z,85.56
2023-05-21T01:15:55.654Z,85.56
2023-05-21T01:16:55.665Z,85.56
2023-05-21T01:17:55.660Z,85.52
2023-05-21T01:18:55.742Z,85.56
2023-05-21T01:19:55.631Z,85.56
2023-05-21T01:20:55.638Z,85.56
2023-05-21T01:21:55.676Z,85.56
2023-05-21T01:22:55.577Z,85.66
2023-05-21T01:23:55.615Z,85.52
2023-05-21T01:24:55.639Z,85.66
2023-05-21T01:25:55.547Z,85.66
2023-05-21T01:26:55.596Z,85.56
2023-05-21T01:27:55.680Z,85.52
2023-05-21T01:28:55.798Z,85.46
2023-05-21T01:29:55.765Z,85.52
2023-05-21T01:30:57.429Z,85.52
2023-05-21T01:31:55.488Z,85.46
2023-05-21T01:32:55.512Z,85.46
2023-05-21T01:33:55.519Z,85.56
2023-05-21T01:34:55.477Z,85.46
2023-05-21T01:35:55.450Z,85.36
2023-05-21T01:36:55.489Z,85.36
2023-05-21T01:37:55.430Z,85.46
2023-05-21T01:38:55.418Z,85.46
2023-05-21T01:39:55.438Z,85.56
2023-05-21T01:40:55.479Z,85.66
2023-05-21T01:41:55.378Z,85.66
2023-05-21T01:42:55.388Z,85.66
2023-05-21T01:43:55.432Z,85.76
2023-05-21T01:44:55.344Z,85.76
2023-05-21T01:45:55.562Z,85.76
2023-05-21T01:46:55.374Z,85.86
2023-05-21T01:47:55.378Z,85.96
2023-05-21T01:48:55.332Z,85.96
2023-05-21T01:49:55.334Z,85.86
2023-05-21T01:50:55.322Z,85.86
2023-05-21T01:51:55.316Z,85.96
2023-05-21T01:52:55.276Z,85.96
2023-05-21T01:53:55.380Z,86.07
2023-05-21T01:54:55.316Z,85.96
2023-05-21T01:55:55.264Z,85.96
2023-05-21T01:56:55.241Z,85.96
2023-05-21T01:57:55.231Z,85.96
2023-05-21T01:58:55.311Z,86.07
2023-05-21T01:59:55.203Z,86.07
2023-05-21T02:00:55.225Z,86.16
2023-05-21T02:01:55.210Z,86.21
2023-05-21T02:02:55.200Z,86.16
2023-05-21T02:03:55.271Z,86.16
2023-05-21T02:04:55.130Z,86.16
2023-05-21T02:05:55.126Z,86.21
2023-05-21T02:06:55.158Z,86.41
2023-05-21T02:07:55.148Z,86.27
2023-05-21T02:08:55.119Z,86.37
2023-05-21T02:09:55.102Z,86.31
2023-05-21T02:10:55.096Z,86.41
2023-05-21T02:11:55.086Z,86.41
2023-05-21T02:12:55.102Z,86.51
2023-05-21T02:13:55.096Z,86.51
2023-05-21T02:14:55.040Z,86.51
2023-05-21T02:15:55.423Z,86.51
2023-05-21T02:16:55.948Z,86.61
2023-05-21T02:17:55.039Z,86.51
2023-05-21T02:18:55.064Z,86.51
2023-05-21T02:19:55.077Z,86.61
2023-05-21T02:20:54.979Z,86.71
2023-05-21T02:21:54.986Z,86.61
2023-05-21T02:22:54.963Z,86.71
2023-05-21T02:23:54.981Z,86.71
2023-05-21T02:24:55.115Z,86.71
2023-05-21T02:25:55.015Z,86.82
2023-05-21T02:26:54.907Z,86.82
2023-05-21T02:27:54.944Z,86.82
2023-05-21T02:28:54.900Z,86.82
2023-05-21T02:29:54.889Z,86.82
2023-05-21T02:30:54.883Z,86.82
2023-05-21T02:31:54.867Z,86.82
2023-05-21T02:32:54.938Z,86.82
2023-05-21T02:33:54.861Z,86.82
2023-05-21T02:34:55.064Z,86.82
2023-05-21T02:35:54.861Z,86.82
2023-05-21T02:36:54.934Z,86.71
2023-05-21T02:37:54.843Z,86.82
2023-05-21T02:38:55.168Z,86.82
2023-05-21T02:39:54.854Z,86.82
2023-05-21T02:40:54.778Z,86.82
2023-05-21T02:41:54.784Z,86.71
2023-05-21T02:42:54.838Z,86.71
2023-05-21T02:43:54.809Z,86.71
2023-05-21T02:44:54.718Z,86.71
2023-05-21T02:45:54.782Z,86.71
2023-05-21T02:46:54.716Z,86.71
2023-05-21T02:47:54.738Z,86.61
2023-05-21T02:48:54.736Z,86.61
2023-05-21T02:49:54.695Z,86.71
2023-05-21T02:50:54.660Z,86.71
2023-05-21T02:51:54.828Z,86.61
2023-05-21T02:52:54.631Z,86.71
2023-05-21T02:53:54.670Z,86.71
2023-05-21T02:54:54.618Z,86.71
2023-05-21T02:55:54.609Z,86.68
2023-05-21T02:56:54.588Z,86.68
2023-05-21T02:57:54.673Z,86.91
2023-05-21T02:58:54.616Z,86.82
2023-05-21T02:59:54.566Z,86.71
2023-05-21T03:00:54.608Z,86.71
2023-05-21T03:01:54.647Z,86.82
2023-05-21T03:02:54.719Z,86.71
2023-05-21T03:03:54.532Z,86.82
2023-05-21T03:04:54.529Z,86.68
2023-05-21T03:05:54.509Z,86.71
2023-05-21T03:06:54.531Z,86.71
2023-05-21T03:07:54.517Z,86.71
2023-05-21T03:08:54.522Z,86.68
2023-05-21T03:09:54.591Z,86.82
2023-05-21T03:10:54.440Z,86.82
2023-05-21T03:11:54.441Z,86.91
2023-05-21T03:12:54.419Z,86.82
2023-05-21T03:13:54.431Z,86.91
2023-05-21T03:14:54.449Z,86.88
2023-05-21T03:15:54.407Z,86.91
2023-05-21T03:16:54.422Z,86.82
2023-05-21T03:17:54.636Z,86.82
2023-05-21T03:18:54.507Z,86.82
2023-05-21T03:19:54.411Z,86.91
2023-05-21T03:20:54.327Z,86.82
2023-05-21T03:21:54.340Z,86.88
2023-05-21T03:22:54.350Z,86.91
2023-05-21T03:23:54.320Z,86.88
2023-05-21T03:24:54.299Z,86.91
2023-05-21T03:25:54.290Z,86.82
2023-05-21T03:26:54.542Z,86.77
2023-05-21T03:27:54.777Z,86.91
2023-05-21T03:28:54.395Z,86.88
2023-05-21T03:29:54.400Z,86.91
2023-05-21T03:30:54.230Z,86.77
2023-05-21T03:31:54.271Z,86.71
2023-05-21T03:32:54.252Z,86.82
2023-05-21T03:33:54.222Z,87.02
2023-05-21T03:34:54.204Z,86.91
2023-05-21T03:35:54.202Z,87.02
2023-05-21T03:36:54.174Z,86.98
2023-05-21T03:37:54.184Z,87.02
2023-05-21T03:38:54.269Z,87.02
2023-05-21T03:39:54.158Z,87.02
2023-05-21T03:40:54.139Z,86.91
2023-05-21T03:41:54.373Z,86.91
2023-05-21T03:42:54.150Z,87.02
2023-05-21T03:43:54.122Z,87.02
2023-05-21T03:44:54.107Z,87.12
2023-05-21T03:45:54.127Z,87.12
2023-05-21T03:46:54.075Z,87.12
2023-05-21T03:47:54.142Z,87.22
2023-05-21T03:48:54.074Z,87.12
2023-05-21T03:49:54.076Z,87.22
2023-05-21T03:50:54.037Z,87.22
2023-05-21T03:51:54.026Z,87.22
2023-05-21T03:52:54.017Z,87.32
2023-05-21T03:53:53.997Z,87.32
2023-05-21T03:54:54.075Z,87.22
2023-05-21T03:55:54.063Z,87.32
2023-05-21T03:56:53.967Z,87.22
2023-05-21T03:57:54.474Z,87.12
2023-05-21T03:58:53.945Z,87.22
2023-05-21T03:59:53.994Z,87.22
2023-05-21T04:00:53.966Z,87.22
2023-05-21T04:01:53.929Z,87.22
2023-05-21T04:02:54.018Z,87.32
2023-05-21T04:03:54.045Z,87.22
2023-05-21T04:04:53.960Z,87.12
2023-05-21T04:05:53.920Z,87.12
2023-05-21T04:06:53.865Z,87.12
2023-05-21T04:07:53.882Z,87.12
2023-05-21T04:08:53.854Z,87.02
2023-05-21T04:09:53.846Z,87.02
2023-05-21T04:10:53.830Z,86.98
2023-05-21T04:11:53.930Z,87.02
2023-05-21T04:12:53.844Z,86.98
2023-05-21T04:13:53.812Z,86.88
2023-05-21T04:14:53.865Z,86.98
2023-05-21T04:15:53.882Z,87.02
2023-05-21T04:16:53.779Z,86.98
2023-05-21T04:17:53.831Z,87.12
2023-05-21T04:18:53.778Z,87.18
2023-05-21T04:19:53.748Z,87.22
2023-05-21T04:20:53.763Z,87.12
2023-05-21T04:21:53.737Z,87.22
2023-05-21T04:22:53.701Z,87.32
2023-05-21T04:23:53.708Z,87.12
2023-05-21T04:24:53.689Z,87.12
2023-05-21T04:25:53.667Z,87.08
2023-05-21T04:26:53.638Z,86.98
2023-05-21T04:27:53.661Z,87.02
2023-05-21T04:28:53.657Z,87.02
2023-05-21T04:29:53.629Z,86.98
2023-05-21T04:30:53.613Z,87.02
2023-05-21T04:31:53.623Z,86.98
2023-05-21T04:32:53.620Z,87.12
2023-05-21T04:33:53.576Z,87.12
2023-05-21T04:34:53.625Z,86.98
2023-05-21T04:35:53.562Z,87.02
2023-05-21T04:36:53.549Z,86.98
2023-05-21T04:37:53.572Z,86.98
2023-05-21T04:38:53.527Z,87.02
2023-05-21T04:39:53.551Z,86.98
2023-05-21T04:40:53.594Z,87.02
2023-05-21T04:41:53.571Z,86.98
2023-05-21T04:42:53.592Z,86.98
2023-05-21T04:43:53.502Z,86.88
2023-05-21T04:44:53.472Z,86.68
2023-05-21T04:45:53.449Z,86.68
2023-05-21T04:46:53.491Z,86.77
2023-05-21T04:47:53.497Z,86.68
2023-05-21T04:48:53.433Z,86.68
2023-05-21T04:49:53.467Z,86.77
2023-05-21T04:50:53.405Z,86.77
2023-05-21T04:51:53.417Z,86.68
2023-05-21T04:52:53.377Z,86.77
2023-05-21T04:53:53.379Z,86.68
2023-05-21T04:54:53.379Z,86.88
2023-05-21T04:55:53.373Z,86.68
2023-05-21T04:56:53.326Z,86.68
2023-05-21T04:57:53.357Z,86.57
2023-05-21T04:58:53.314Z,86.57
2023-05-21T04:59:53.303Z,86.57
2023-05-21T05:00:53.362Z,86.57
2023-05-21T05:01:53.319Z,86.47
2023-05-21T05:02:53.388Z,86.47
2023-05-21T05:03:53.277Z,86.47
2023-05-21T05:04:53.267Z,86.47
2023-05-21T05:05:53.263Z,86.37
2023-05-21T05:06:53.249Z,86.37
2023-05-21T05:07:53.256Z,86.16
2023-05-21T05:08:53.213Z,86.27
2023-05-21T05:09:53.193Z,86.27
2023-05-21T05:10:53.190Z,86.13
2023-05-21T05:11:53.184Z,86.16
2023-05-21T05:12:53.172Z,86.07
2023-05-21T05:13:53.162Z,86.07
2023-05-21T05:14:53.137Z,86.02
2023-05-21T05:15:54.539Z,86.07
2023-05-21T05:16:53.165Z,86.07
2023-05-21T05:17:53.172Z,86.07
2023-05-21T05:18:53.170Z,86.16
2023-05-21T05:19:53.102Z,86.27
2023-05-21T05:20:53.068Z,86.27
2023-05-21T05:21:53.087Z,86.27
2023-05-21T05:22:53.069Z,86.02
2023-05-21T05:23:53.070Z,85.82
2023-05-21T05:24:53.043Z,85.72
2023-05-21T05:25:53.044Z,85.82
2023-05-21T05:26:53.026Z,85.72
2023-05-21T05:27:53.030Z,85.72
2023-05-21T05:28:52.990Z,85.72
2023-05-21T05:29:52.973Z,85.93
2023-05-21T05:30:53.006Z,85.82
2023-05-21T05:31:52.981Z,85.72
2023-05-21T05:32:53.030Z,85.52
2023-05-21T05:33:52.950Z,85.62
2023-05-21T05:34:52.974Z,85.62
2023-05-21T05:35:52.961Z,85.52
2023-05-21T05:36:52.910Z,85.42
2023-05-21T05:37:52.917Z,85.42
2023-05-21T05:38:52.948Z,85.21
2023-05-21T05:39:52.882Z,85.31
2023-05-21T05:40:52.897Z,85.31
2023-05-21T05:41:52.860Z,85.31
2023-05-21T05:42:52.889Z,85.21
2023-05-21T05:43:52.870Z,85.17
2023-05-21T05:44:52.842Z,85.07
2023-05-21T05:45:52.860Z,84.87
2023-05-21T05:46:52.818Z,84.97
2023-05-21T05:47:52.811Z,84.77
2023-05-21T05:48:52.796Z,84.77
2023-05-21T05:49:52.784Z,84.67
2023-05-21T05:50:52.780Z,84.53
2023-05-21T05:51:52.807Z,84.47
2023-05-21T05:52:52.748Z,84.22
2023-05-21T05:53:52.743Z,84.02
2023-05-21T05:54:52.737Z,83.92
2023-05-21T05:55:52.708Z,83.92
2023-05-21T05:56:52.746Z,83.82
2023-05-21T05:57:52.700Z,83.72
2023-05-21T05:58:52.719Z,83.47
2023-05-21T05:59:52.719Z,83.37
2023-05-21T06:00:52.667Z,83.07
2023-05-21T06:01:52.643Z,82.87
2023-05-21T06:02:52.697Z,82.62
2023-05-21T06:03:52.719Z,82.83
2023-05-21T06:04:52.616Z,82.53
2023-05-21T06:05:52.631Z,82.53
2023-05-21T06:06:52.618Z,82.42
2023-05-21T06:07:52.614Z,82.42
2023-05-21T06:08:52.571Z,82.32
2023-05-21T06:09:52.560Z,82.22
2023-05-21T06:10:52.578Z,82.22
2023-05-21T06:11:52.568Z,81.78
2023-05-21T06:12:52.532Z,81.78
2023-05-21T06:13:52.520Z,81.68
2023-05-21T06:14:52.527Z,81.57
2023-05-21T06:15:52.568Z,81.27
2023-05-21T06:16:52.511Z,81.48
2023-05-21T06:17:52.528Z,81.68
2023-05-21T06:18:52.497Z,81.88
2023-05-21T06:19:52.483Z,81.78
2023-05-21T06:20:52.465Z,81.48
2023-05-21T06:21:52.436Z,81.37
2023-05-21T06:22:52.435Z,81.48
2023-05-21T06:23:52.398Z,81.23
2023-05-21T06:24:52.415Z,81.03
2023-05-21T06:25:52.409Z,81.03
2023-05-21T06:26:52.385Z,80.73
2023-05-21T06:27:52.393Z,80.73
2023-05-21T06:28:52.422Z,80.53
2023-05-21T06:29:52.371Z,80.19
2023-05-21T06:30:52.350Z,80.29
2023-05-21T06:31:52.356Z,79.99
2023-05-21T06:32:52.418Z,79.54
2023-05-21T06:33:52.466Z,79.44
2023-05-21T06:34:52.303Z,79.24
2023-05-21T06:35:52.287Z,78.70
2023-05-21T06:36:52.318Z,78.19
2023-05-21T06:37:52.273Z,78.16
2023-05-21T06:38:52.263Z,77.62
2023-05-21T06:39:52.236Z,76.97
2023-05-21T06:40:52.288Z,76.67
2023-05-21T06:41:52.255Z,76.67
2023-05-21T06:42:52.209Z,76.03
2023-05-21T06:43:52.205Z,74.82
2023-05-21T06:44:52.210Z,74.82
2023-05-21T06:45:52.220Z,74.73
2023-05-21T06:46:52.175Z,74.69
2023-05-21T06:47:52.181Z,74.29
2023-05-21T06:48:52.190Z,74.08
2023-05-21T06:49:52.134Z,73.75
2023-05-21T06:50:52.152Z,73.11
2023-05-21T06:51:52.129Z,72.77
2023-05-21T06:52:52.117Z,71.73
2023-05-21T06:53:52.096Z,71.87
2023-05-21T06:54:52.140Z,71.06
2023-05-21T06:55:52.087Z,72.07
2023-05-21T06:56:52.077Z,71.63
2023-05-21T06:57:52.075Z,71.63
2023-05-21T06:58:52.050Z,71.53
2023-05-21T06:59:52.064Z,71.03
2023-05-21T07:00:52.048Z,70.93
2023-05-21T07:01:52.119Z,70.70
2023-05-21T07:02:52.221Z,70.50
2023-05-21T07:03:51.994Z,70.19
2023-05-21T07:04:52.028Z,69.85
2023-05-21T07:05:51.949Z,69.89
2023-05-21T07:06:51.962Z,69.85
2023-05-21T07:07:51.950Z,69.56
2023-05-21T07:08:51.952Z,71.09
2023-05-21T07:09:51.908Z,70.29
2023-05-21T07:10:51.974Z,70.19
2023-05-21T07:11:51.945Z,70.19
2023-05-21T07:12:51.939Z,70.19
2023-05-21T07:13:51.892Z,70.76
2023-05-21T07:14:51.893Z,70.56
2023-05-21T07:15:51.880Z,70.26
2023-05-21T07:16:51.912Z,69.76
2023-05-21T07:17:51.918Z,69.85
2023-05-21T07:18:52.224Z,70.06
2023-05-21T07:19:51.818Z,70.36
2023-05-21T07:20:51.816Z,70.70
2023-05-21T07:21:51.787Z,70.59
2023-05-21T07:22:51.817Z,70.70
2023-05-21T07:23:51.779Z,70.89
2023-05-21T07:24:51.754Z,70.73
2023-05-21T07:25:51.779Z,70.93
2023-05-21T07:26:51.738Z,71.23
2023-05-21T07:27:51.736Z,71.03
2023-05-21T07:28:51.730Z,70.70
2023-05-21T07:29:51.791Z,70.50
2023-05-21T07:30:51.741Z,70.59
2023-05-21T07:31:51.728Z,70.79
2023-05-21T07:32:51.706Z,70.70
2023-05-21T07:33:51.655Z,70.70
2023-05-21T07:34:53.552Z,70.29
2023-05-21T07:35:51.681Z,70.06
2023-05-21T07:36:51.637Z,69.89
2023-05-21T07:37:51.747Z,69.76
2023-05-21T07:38:51.624Z,69.56
2023-05-21T07:39:51.607Z,69.42
2023-05-21T07:40:51.610Z,69.22
2023-05-21T07:41:51.626Z,69.02
2023-05-21T07:42:51.575Z,68.99
2023-05-21T07:43:51.593Z,68.79
2023-05-21T07:44:51.566Z,68.26
2023-05-21T07:45:51.736Z,68.26
2023-05-21T07:46:51.585Z,67.72
2023-05-21T07:47:51.590Z,67.42
2023-05-21T07:48:51.545Z,67.42
2023-05-21T07:49:51.511Z,67.69
2023-05-21T07:50:51.495Z,67.09
2023-05-21T07:51:51.509Z,66.19
2023-05-21T07:52:51.557Z,66.42
2023-05-21T07:53:53.196Z,66.78
2023-05-21T07:54:51.463Z,66.82
2023-05-21T07:55:51.454Z,66.69
2023-05-21T07:56:51.462Z,66.78
2023-05-21T07:57:51.429Z,66.59
2023-05-21T07:58:51.422Z,66.39
2023-05-21T07:59:51.408Z,66.39
2023-05-21T08:00:51.394Z,66.36
2023-05-21T08:01:51.392Z,66.16
2023-05-21T08:02:51.453Z,66.05
2023-05-21T08:03:51.527Z,65.52
2023-05-21T08:04:51.474Z,65.02
2023-05-21T08:05:51.372Z,65.42
2023-05-21T08:06:51.332Z,65.02
2023-05-21T08:07:51.340Z,65.42
2023-05-21T08:08:51.343Z,65.22
2023-05-21T08:09:51.301Z,65.33
2023-05-21T08:10:51.279Z,64.89
2023-05-21T08:11:51.305Z,64.83
2023-05-21T08:12:51.269Z,65.02
2023-05-21T08:13:51.305Z,64.92
2023-05-21T08:14:51.301Z,64.92
2023-05-21T08:15:53.131Z,65.52
2023-05-21T08:16:52.095Z,65.09
2023-05-21T08:17:51.261Z,64.59
2023-05-21T08:18:51.328Z,64.69
2023-05-21T08:19:51.219Z,64.52
2023-05-21T08:20:51.209Z,64.92
2023-05-21T08:21:52.957Z,65.42
2023-05-21T08:22:51.171Z,66.16
2023-05-21T08:23:51.128Z,67.16
2023-05-21T08:24:51.141Z,66.42
2023-05-21T08:25:51.175Z,65.72
2023-05-21T08:26:51.138Z,65.09
2023-05-21T08:27:52.543Z,64.89
2023-05-21T08:28:51.100Z,64.99
2023-05-21T08:29:51.099Z,65.16
2023-05-21T08:30:51.077Z,64.46
2023-05-21T08:31:54.198Z,64.26
2023-05-21T08:32:51.104Z,64.06
2023-05-21T08:33:51.050Z,63.83
2023-05-21T08:34:51.102Z,63.63
2023-05-21T08:35:51.033Z,63.33
2023-05-21T08:36:51.008Z,62.81
2023-05-21T08:37:51.062Z,62.07
2023-05-21T08:38:51.014Z,62.40
2023-05-21T08:39:50.973Z,63.90
2023-05-21T08:40:50.988Z,63.80
2023-05-21T08:41:50.996Z,63.80
2023-05-21T08:42:50.965Z,62.77
2023-05-21T08:43:52.509Z,62.18
2023-05-21T08:44:50.932Z,62.87
2023-05-21T08:45:50.936Z,62.15
2023-05-21T08:46:50.917Z,62.74
2023-05-21T08:47:51.048Z,62.64
2023-05-21T08:48:50.904Z,62.48
2023-05-21T08:49:50.884Z,62.54
2023-05-21T08:50:50.857Z,63.14
2023-05-21T08:51:50.888Z,62.04
2023-05-21T08:52:50.865Z,61.22
2023-05-21T08:53:50.850Z,60.62
2023-05-21T08:54:50.825Z,61.35
2023-05-21T08:55:51.717Z,61.65
2023-05-21T08:56:50.796Z,61.65
2023-05-21T08:57:50.835Z,61.44
2023-05-21T08:58:50.806Z,61.68
2023-05-21T08:59:50.762Z,61.27
2023-05-21T09:00:50.830Z,61.68
2023-05-21T09:01:50.906Z,61.38
2023-05-21T09:02:50.805Z,62.15
2023-05-21T09:03:50.855Z,61.05
2023-05-21T09:04:50.752Z,61.52
2023-05-21T09:05:50.731Z,60.72
2023-05-21T09:06:50.688Z,61.05
2023-05-21T09:07:52.512Z,61.82
2023-05-21T09:08:50.708Z,61.22
2023-05-21T09:09:50.664Z,60.82
2023-05-21T09:10:50.709Z,60.89
2023-05-21T09:11:50.655Z,60.29
2023-05-21T09:12:50.725Z,59.30
2023-05-21T09:13:50.938Z,59.39
2023-05-21T09:14:50.608Z,59.30
2023-05-21T09:15:50.599Z,58.87
2023-05-21T09:16:50.620Z,58.76
2023-05-21T09:17:50.615Z,58.76
2023-05-21T09:18:50.623Z,58.37
2023-05-21T09:19:50.606Z,58.17
2023-05-21T09:20:50.644Z,58.47
2023-05-21T09:21:50.545Z,58.50
2023-05-21T09:22:50.562Z,58.29
2023-05-21T09:23:50.512Z,58.27
2023-05-21T09:24:50.510Z,58.27
2023-05-21T09:25:50.554Z,58.20
2023-05-21T09:26:50.504Z,58.70
2023-05-21T09:27:50.488Z,59.00
2023-05-21T09:28:50.497Z,58.50
2023-05-21T09:29:50.469Z,58.57
2023-05-21T09:30:50.457Z,58.17
2023-05-21T09:31:50.544Z,57.17
2023-05-21T09:32:50.468Z,57.05
2023-05-21T09:33:50.415Z,56.15
2023-05-21T09:34:50.418Z,57.35
2023-05-21T09:35:50.401Z,58.07
2023-05-21T09:36:50.427Z,57.94
2023-05-21T09:37:50.375Z,57.35
2023-05-21T09:38:50.396Z,57.42
2023-05-21T09:39:50.345Z,57.32
2023-05-21T09:40:50.363Z,56.40
2023-05-21T09:41:50.322Z,56.59
2023-05-21T09:42:50.303Z,56.10
2023-05-21T09:43:50.348Z,56.27
2023-05-21T09:44:50.320Z,55.15
2023-05-21T09:45:50.322Z,54.55
2023-05-21T09:46:50.445Z,54.43
2023-05-21T09:47:50.392Z,54.35
2023-05-21T09:48:50.313Z,55.12
2023-05-21T09:49:50.226Z,54.43
2023-05-21T09:50:50.219Z,54.82
2023-05-21T09:51:50.243Z,55.05
2023-05-21T09:52:50.240Z,55.15
2023-05-21T09:53:50.238Z,55.15
2023-05-21T09:54:50.234Z,55.55
2023-05-21T09:55:50.187Z,55.47
2023-05-21T09:56:50.178Z,54.78
2023-05-21T09:57:51.015Z,54.78
2023-05-21T09:58:51.140Z,53.71
2023-05-21T09:59:50.163Z,54.13
2023-05-21T10:00:50.112Z,53.94
2023-05-21T10:01:50.149Z,54.46
2023-05-21T10:02:50.178Z,54.86
2023-05-21T10:03:50.758Z,55.08
2023-05-21T10:04:50.254Z,55.71
2023-05-21T10:05:50.068Z,55.80
2023-05-21T10:06:50.120Z,56.27
2023-05-21T10:07:50.371Z,55.88
2023-05-21T10:08:50.086Z,56.08
2023-05-21T10:09:50.060Z,55.98
2023-05-21T10:10:50.045Z,55.88
2023-05-21T10:11:50.057Z,55.26
2023-05-21T10:12:50.006Z,55.65
2023-05-21T10:13:50.014Z,55.65
2023-05-21T10:14:50.021Z,55.65
2023-05-21T10:15:50.916Z,54.96
2023-05-21T10:16:50.017Z,54.63
2023-05-21T10:17:49.990Z,55.53
2023-05-21T10:18:49.964Z,54.90
2023-05-21T10:19:49.932Z,54.50
2023-05-21T10:20:49.989Z,54.18
2023-05-21T10:21:51.933Z,54.25
2023-05-21T10:22:49.896Z,53.46
2023-05-21T10:23:49.887Z,52.76
2023-05-21T10:24:49.897Z,52.86
2023-05-21T10:25:49.854Z,52.29
2023-05-21T10:26:49.924Z,52.59
2023-05-21T10:27:49.864Z,52.89
2023-05-21T10:28:49.847Z,53.09
2023-05-21T10:29:49.877Z,52.79
2023-05-21T10:30:49.830Z,52.59
2023-05-21T10:31:50.556Z,52.79
2023-05-21T10:32:49.985Z,53.51
2023-05-21T10:33:49.873Z,54.63
2023-05-21T10:34:49.769Z,54.96
2023-05-21T10:35:50.926Z,54.56
2023-05-21T10:36:49.750Z,55.03
2023-05-21T10:37:49.748Z,54.21
2023-05-21T10:38:49.741Z,53.49
2023-05-21T10:39:49.728Z,53.06
2023-05-21T10:40:49.719Z,53.14
2023-05-21T10:41:50.432Z,52.61
2023-05-21T10:42:50.240Z,50.51
2023-05-21T10:43:49.722Z,50.90
2023-05-21T10:44:49.674Z,50.68
2023-05-21T10:45:49.976Z,50.78
2023-05-21T10:46:49.664Z,49.59
2023-05-21T10:47:51.041Z,50.38
2023-05-21T10:48:49.666Z,49.86
2023-05-21T10:49:49.610Z,49.66
2023-05-21T10:50:50.687Z,50.23
2023-05-21T10:51:49.606Z,49.24
2023-05-21T10:52:49.594Z,49.76
2023-05-21T10:53:49.625Z,49.57
2023-05-21T10:54:49.635Z,49.54
2023-05-21T10:55:49.584Z,49.76
2023-05-21T10:56:49.559Z,49.79
2023-05-21T10:57:49.573Z,50.36
2023-05-21T10:58:49.564Z,50.13
2023-05-21T10:59:49.522Z,48.94
2023-05-21T11:00:49.565Z,49.02
2023-05-21T11:01:49.605Z,49.02
2023-05-21T11:02:49.567Z,49.81
2023-05-21T11:03:49.528Z,49.05
2023-05-21T11:04:49.591Z,49.17
2023-05-21T11:05:49.505Z,49.27
2023-05-21T11:06:49.475Z,49.46
2023-05-21T11:07:49.428Z,49.49
2023-05-21T11:08:49.449Z,49.69
2023-05-21T11:09:49.432Z,49.27
2023-05-21T11:10:49.435Z,50.26
2023-05-21T11:11:49.436Z,49.34
2023-05-21T11:12:49.381Z,50.04
2023-05-21T11:13:49.762Z,48.92
2023-05-21T11:14:49.375Z,49.22
2023-05-21T11:15:49.363Z,48.80
2023-05-21T11:16:49.452Z,48.70
2023-05-21T11:17:49.442Z,49.07
2023-05-21T11:18:49.365Z,48.46
2023-05-21T11:19:49.370Z,47.84
2023-05-21T11:20:49.312Z,47.64
2023-05-21T11:21:49.313Z,48.55
2023-05-21T11:22:49.338Z,48.06
2023-05-21T11:23:49.277Z,46.88
2023-05-21T11:24:50.883Z,47.86
2023-05-21T11:25:49.277Z,48.36
2023-05-21T11:26:49.255Z,48.06
2023-05-21T11:27:49.234Z,47.17
2023-05-21T11:28:49.237Z,47.00
2023-05-21T11:29:49.217Z,46.62
2023-05-21T11:30:49.180Z,47.09
2023-05-21T11:31:49.276Z,46.70
2023-05-21T11:32:49.280Z,46.58
2023-05-21T11:33:49.163Z,46.66
2023-05-21T11:34:49.172Z,46.88
2023-05-21T11:35:49.207Z,47.52
2023-05-21T11:36:49.139Z,47.69
2023-05-21T11:37:49.185Z,47.78
2023-05-21T11:38:49.118Z,47.27
2023-05-21T11:39:49.104Z,47.25
2023-05-21T11:40:49.103Z,46.26
2023-05-21T11:41:49.103Z,46.63
2023-05-21T11:42:49.113Z,45.86
2023-05-21T11:43:49.088Z,45.96
2023-05-21T11:44:49.164Z,47.77
2023-05-21T11:45:49.135Z,46.78
2023-05-21T11:46:49.118Z,47.02
2023-05-21T11:47:49.289Z,47.19
2023-05-21T11:48:49.001Z,47.09
2023-05-21T11:49:49.222Z,46.67
2023-05-21T11:50:49.015Z,46.45
2023-05-21T11:51:49.687Z,44.68
2023-05-21T11:52:48.991Z,44.75
2023-05-21T11:53:48.991Z,45.15
2023-05-21T11:54:48.932Z,45.94
2023-05-21T11:55:48.933Z,45.03
2023-05-21T11:56:48.928Z,43.92
2023-05-21T11:57:48.933Z,44.42
2023-05-21T11:58:48.928Z,44.22
2023-05-21T11:59:48.907Z,44.54
2023-05-21T12:00:48.869Z,45.62
2023-05-21T12:01:48.914Z,44.56
2023-05-21T12:02:48.959Z,44.85
2023-05-21T12:03:48.958Z,44.83
2023-05-21T12:04:48.845Z,43.84
2023-05-21T12:05:49.153Z,44.54
2023-05-21T12:06:48.820Z,44.43
2023-05-21T12:07:48.929Z,44.43
2023-05-21T12:08:48.824Z,44.43
2023-05-21T12:09:49.033Z,44.12
2023-05-21T12:10:48.829Z,43.23
2023-05-21T12:11:49.663Z,42.83
2023-05-21T12:12:55.633Z,42.82
2023-05-21T12:13:48.820Z,43.11
2023-05-21T12:14:48.751Z,42.52
2023-05-21T12:15:48.756Z,43.82
2023-05-21T12:16:48.720Z,42.83
2023-05-21T12:17:48.708Z,43.13
2023-05-21T12:18:48.741Z,43.33
2023-05-21T12:19:48.685Z,43.52
2023-05-21T12:20:48.700Z,44.51
2023-05-21T12:21:48.670Z,43.92
2023-05-21T12:22:48.670Z,42.61
2023-05-21T12:23:48.648Z,43.33
2023-05-21T12:24:48.679Z,42.82
2023-05-21T12:25:48.644Z,42.82
2023-05-21T12:26:48.636Z,42.69
2023-05-21T12:27:48.633Z,41.53
2023-05-21T12:28:48.634Z,41.63
2023-05-21T12:29:48.604Z,41.95
2023-05-21T12:30:48.580Z,42.26
2023-05-21T12:31:48.646Z,41.65
2023-05-21T12:32:48.631Z,41.47
2023-05-21T12:33:48.548Z,41.97
2023-05-21T12:34:48.538Z,42.08
2023-05-21T12:35:48.594Z,42.38
2023-05-21T12:36:48.525Z,42.68
2023-05-21T12:37:48.512Z,42.58
2023-05-21T12:38:48.530Z,41.89
2023-05-21T12:39:48.518Z,41.57
2023-05-21T12:40:48.500Z,41.87
2023-05-21T12:41:48.475Z,41.47
2023-05-21T12:42:48.522Z,40.94
2023-05-21T12:43:48.523Z,40.33
2023-05-21T12:44:48.440Z,39.12
2023-05-21T12:45:48.480Z,40.21
2023-05-21T12:46:48.468Z,41.00
2023-05-21T12:47:48.462Z,40.23
2023-05-21T12:48:48.395Z,41.14
2023-05-21T12:49:48.423Z,41.24
2023-05-21T12:50:48.389Z,41.71
2023-05-21T12:51:48.370Z,41.51
2023-05-21T12:52:48.376Z,41.20